createdAt,value
2017-07-01T00:00:12.604Z,26.53
2017-07-01T00:02:40.833Z,26.51
2017-07-01T00:05:08.487Z,26.60
2017-07-01T00:07:36.079Z,26.60
2017-07-01T00:10:03.627Z,26.45
2017-07-01T00:12:31.196Z,26.52
2017-07-01T00:14:58.769Z,26.49
2017-07-01T00:17:26.283Z,26.10
2017-07-01T00:19:54.397Z,26.06
2017-07-01T00:22:22.055Z,26.25
2017-07-01T00:24:49.614Z,26.31
2017-07-01T00:27:24.384Z,26.20
2017-07-01T00:29:52.001Z,26.14
2017-07-01T00:32:19.645Z,26.25
2017-07-01T00:34:47.232Z,26.23
2017-07-01T00:37:16.565Z,26.20
2017-07-01T00:39:45.127Z,26.33
2017-07-01T00:42:12.697Z,26.23
2017-07-01T00:44:40.333Z,26.31
2017-07-01T00:47:07.930Z,26.21
2017-07-01T00:49:35.524Z,26.28
2017-07-01T00:52:03.125Z,26.39
2017-07-01T00:54:30.729Z,26.43
2017-07-01T00:56:58.292Z,26.42
2017-07-01T00:59:25.812Z,26.31
2017-07-01T01:01:53.413Z,26.15
2017-07-01T01:04:20.959Z,26.07
2017-07-01T01:06:48.497Z,26.16
2017-07-01T01:09:16.998Z,26.16
2017-07-01T01:11:44.620Z,25.99
2017-07-01T01:14:12.445Z,25.83
2017-07-01T01:16:40.067Z,25.88
2017-07-01T01:19:07.628Z,26.02
2017-07-01T01:21:35.853Z,25.92
2017-07-01T01:24:03.414Z,25.87
2017-07-01T01:26:30.954Z,25.78
2017-07-01T01:28:58.474Z,25.95
2017-07-01T01:31:26.084Z,25.94
2017-07-01T01:33:53.613Z,25.64
2017-07-01T01:36:21.161Z,25.73
2017-07-01T01:38:48.720Z,25.43
2017-07-01T01:41:16.287Z,25.77
2017-07-01T01:43:43.863Z,25.74
2017-07-01T01:46:11.486Z,25.70
2017-07-01T01:48:39.051Z,25.81
2017-07-01T01:51:06.851Z,25.79
2017-07-01T01:53:34.447Z,25.76
2017-07-01T01:56:02.070Z,25.86
2017-07-01T01:58:29.631Z,25.78
2017-07-01T02:00:57.247Z,25.88
2017-07-01T02:03:25.049Z,25.77
2017-07-01T02:05:52.630Z,25.78
2017-07-01T02:08:20.253Z,25.81
2017-07-01T02:10:49.861Z,25.79
2017-07-01T02:13:17.420Z,25.69
2017-07-01T02:15:50.767Z,25.66
2017-07-01T02:18:26.321Z,25.64
2017-07-01T02:21:10.727Z,25.49
2017-07-01T02:23:49.808Z,25.54
2017-07-01T02:26:23.958Z,25.54
2017-07-01T02:28:56.237Z,25.59
2017-07-01T02:31:24.885Z,25.60
2017-07-01T02:33:54.867Z,25.39
2017-07-01T02:36:25.049Z,25.48
2017-07-01T02:38:53.977Z,25.47
2017-07-01T02:41:22.619Z,25.50
2017-07-01T02:43:51.114Z,25.37
2017-07-01T02:46:36.066Z,25.06
2017-07-01T02:49:21.965Z,25.11
2017-07-01T02:52:02.476Z,24.88
2017-07-01T02:54:35.063Z,24.70
2017-07-01T02:57:03.048Z,24.81
2017-07-01T02:59:33.461Z,24.89
2017-07-01T03:02:01.597Z,24.98
2017-07-01T03:04:30.746Z,25.01
2017-07-01T03:06:59.815Z,25.13
2017-07-01T03:09:28.427Z,25.23
2017-07-01T03:11:57.405Z,25.18
2017-07-01T03:14:26.153Z,25.13
2017-07-01T03:16:55.048Z,25.07
2017-07-01T03:19:24.990Z,25.22
2017-07-01T03:21:52.982Z,25.23
2017-07-01T03:24:22.320Z,25.28
2017-07-01T03:26:51.022Z,25.24
2017-07-01T03:29:26.629Z,25.29
2017-07-01T03:31:55.858Z,25.29
2017-07-01T03:34:25.100Z,25.25
2017-07-01T03:37:00.584Z,25.30
2017-07-01T03:39:40.623Z,25.35
2017-07-01T03:42:17.746Z,25.39
2017-07-01T03:44:57.836Z,25.52
2017-07-01T03:47:32.766Z,25.62
2017-07-01T03:50:02.480Z,25.74
2017-07-01T03:52:32.130Z,25.82
2017-07-01T03:55:00.728Z,25.53
2017-07-01T03:57:40.992Z,25.64
2017-07-01T04:00:09.431Z,25.75
2017-07-01T04:02:39.500Z,25.68
2017-07-01T04:05:07.678Z,25.69
2017-07-01T04:07:35.831Z,25.75
2017-07-01T04:10:08.274Z,25.47
2017-07-01T04:12:36.884Z,25.61
2017-07-01T04:15:05.019Z,25.75
2017-07-01T04:17:32.591Z,25.86
2017-07-01T04:20:01.161Z,26.01
2017-07-01T04:22:36.289Z,25.77
2017-07-01T04:25:05.298Z,25.86
2017-07-01T04:27:37.972Z,26.15
2017-07-01T04:30:08.058Z,25.76
2017-07-01T04:32:36.593Z,25.97
2017-07-01T04:35:05.234Z,26.14
2017-07-01T04:37:33.737Z,26.38
2017-07-01T04:40:07.719Z,26.34
2017-07-01T04:42:38.010Z,26.48
2017-07-01T04:45:10.403Z,26.33
2017-07-01T04:47:58.944Z,26.14
2017-07-01T04:50:40.905Z,26.32
2017-07-01T04:53:09.836Z,26.44
2017-07-01T04:55:39.283Z,26.69
2017-07-01T04:58:06.837Z,26.98
2017-07-01T05:00:49.326Z,27.23
2017-07-01T05:03:16.930Z,27.19
2017-07-01T05:05:46.283Z,27.20
2017-07-01T05:08:16.150Z,27.44
2017-07-01T05:10:54.587Z,27.56
2017-07-01T05:13:22.222Z,27.51
2017-07-01T05:15:53.579Z,27.61
2017-07-01T05:18:21.159Z,27.67
2017-07-01T05:20:49.599Z,27.68
2017-07-01T05:23:22.807Z,27.83
2017-07-01T05:25:59.786Z,27.85
2017-07-01T05:28:28.170Z,28.24
2017-07-01T05:31:29.362Z,28.51
2017-07-01T05:33:57.653Z,28.77
2017-07-01T05:36:46.473Z,28.86
2017-07-01T05:39:18.498Z,28.84
2017-07-01T05:42:22.604Z,28.81
2017-07-01T05:44:53.925Z,28.90
2017-07-01T05:47:22.955Z,28.92
2017-07-01T05:49:50.556Z,29.25
2017-07-01T05:52:22.033Z,29.27
2017-07-01T05:54:49.731Z,29.31
2017-07-01T05:57:17.408Z,29.55
2017-07-01T05:59:44.987Z,29.83
2017-07-01T06:02:17.415Z,29.73
2017-07-01T06:04:45.030Z,29.96
2017-07-01T06:07:12.884Z,30.10
2017-07-01T06:09:50.824Z,30.07
2017-07-01T06:12:32.809Z,30.36
2017-07-01T06:15:18.547Z,30.53
2017-07-01T06:17:49.963Z,30.52
2017-07-01T06:20:43.443Z,30.67
2017-07-01T06:23:12.647Z,30.86
2017-07-01T06:26:14.333Z,30.76
2017-07-01T06:29:07.150Z,31.16
2017-07-01T06:31:42.955Z,31.02
2017-07-01T06:34:10.931Z,31.39
2017-07-01T06:36:39.164Z,31.67
2017-07-01T06:39:08.523Z,31.49
2017-07-01T06:41:39.782Z,31.81
2017-07-01T06:44:23.095Z,31.96
2017-07-01T06:47:00.068Z,32.11
2017-07-01T06:49:28.440Z,32.25
2017-07-01T06:52:00.970Z,32.34
2017-07-01T06:54:29.876Z,32.45
2017-07-01T06:56:59.390Z,32.61
2017-07-01T06:59:39.267Z,32.73
2017-07-01T07:02:08.216Z,32.45
2017-07-01T07:04:42.141Z,32.54
2017-07-01T07:07:10.233Z,32.93
2017-07-01T07:09:49.873Z,33.59
2017-07-01T07:12:21.298Z,33.36
2017-07-01T07:14:49.238Z,33.23
2017-07-01T07:17:33.059Z,33.40
2017-07-01T07:20:00.631Z,33.71
2017-07-01T07:22:28.238Z,34.07
2017-07-01T07:25:17.941Z,34.21
2017-07-01T07:27:46.314Z,34.55
2017-07-01T07:30:14.141Z,34.31
2017-07-01T07:32:41.889Z,34.31
2017-07-01T07:35:09.460Z,34.42
2017-07-01T07:37:37.242Z,34.74
2017-07-01T07:40:04.909Z,34.30
2017-07-01T07:42:32.565Z,34.27
2017-07-01T07:45:00.207Z,34.57
2017-07-01T07:47:28.139Z,34.54
2017-07-01T07:50:05.295Z,34.95
2017-07-01T07:52:34.531Z,34.97
2017-07-01T07:55:02.088Z,35.08
2017-07-01T07:57:30.958Z,35.13
2017-07-01T07:59:58.503Z,35.35
2017-07-01T08:02:26.182Z,35.41
2017-07-01T08:04:53.931Z,35.23
2017-07-01T08:07:21.588Z,35.41
2017-07-01T08:09:49.273Z,35.94
2017-07-01T08:12:16.894Z,36.19
2017-07-01T08:14:44.451Z,36.14
2017-07-01T08:17:12.044Z,36.48
2017-07-01T08:19:39.837Z,36.41
2017-07-01T08:22:08.571Z,36.98
2017-07-01T08:24:36.634Z,37.23
2017-07-01T08:27:04.252Z,37.53
2017-07-01T08:29:32.223Z,37.61
2017-07-01T08:31:59.894Z,37.87
2017-07-01T08:34:27.502Z,37.99
2017-07-01T08:36:55.075Z,37.79
2017-07-01T08:39:22.732Z,37.91
2017-07-01T08:41:50.332Z,37.62
2017-07-01T08:44:18.012Z,38.05
2017-07-01T08:46:46.102Z,38.15
2017-07-01T08:49:13.670Z,38.48
2017-07-01T08:51:41.350Z,38.81
2017-07-01T08:54:08.957Z,38.56
2017-07-01T08:56:37.233Z,38.81
2017-07-01T08:59:06.118Z,38.79
2017-07-01T09:01:35.169Z,38.96
2017-07-01T09:04:04.528Z,38.42
2017-07-01T09:06:32.128Z,38.04
2017-07-01T09:09:00.362Z,38.09
2017-07-01T09:11:28.585Z,38.62
2017-07-01T09:13:56.188Z,38.99
2017-07-01T09:16:23.770Z,38.63
2017-07-01T09:18:51.293Z,38.22
2017-07-01T09:21:19.083Z,38.01
2017-07-01T09:23:46.797Z,38.00
2017-07-01T09:26:14.395Z,38.09
2017-07-01T09:28:41.940Z,38.00
2017-07-01T09:31:10.458Z,37.83
2017-07-01T09:33:37.999Z,38.05
2017-07-01T09:36:05.549Z,38.04
2017-07-01T09:38:33.137Z,38.12
2017-07-01T09:41:00.765Z,38.32
2017-07-01T09:43:28.567Z,38.32
2017-07-01T09:45:56.318Z,38.38
2017-07-01T09:48:24.109Z,38.22
2017-07-01T09:50:51.633Z,38.48
2017-07-01T09:53:19.211Z,38.41
2017-07-01T09:55:46.761Z,38.76
2017-07-01T09:58:14.293Z,38.47
2017-07-01T10:00:41.848Z,38.47
2017-07-01T10:03:09.665Z,38.56
2017-07-01T10:05:37.256Z,38.10
2017-07-01T10:08:05.040Z,38.56
2017-07-01T10:10:32.666Z,38.51
2017-07-01T10:13:00.219Z,38.43
2017-07-01T10:15:27.837Z,38.52
2017-07-01T10:17:55.441Z,38.92
2017-07-01T10:20:23.174Z,38.93
2017-07-01T10:22:50.806Z,38.32
2017-07-01T10:25:18.348Z,38.30
2017-07-01T10:27:45.914Z,38.40
2017-07-01T10:30:13.546Z,38.61
2017-07-01T10:32:41.658Z,38.60
2017-07-01T10:35:09.401Z,38.77
2017-07-01T10:37:36.970Z,39.14
2017-07-01T10:40:04.566Z,39.12
2017-07-01T10:42:32.132Z,39.14
2017-07-01T10:44:59.710Z,39.26
2017-07-01T10:47:27.481Z,39.00
2017-07-01T10:49:55.569Z,39.25
2017-07-01T10:52:23.135Z,38.93
2017-07-01T10:54:50.886Z,38.45
2017-07-01T10:57:18.468Z,38.86
2017-07-01T10:59:46.044Z,39.24
2017-07-01T11:02:13.622Z,39.07
2017-07-01T11:04:41.202Z,38.98
2017-07-01T11:07:08.950Z,38.63
2017-07-01T11:16:39.990Z,38.52
2017-07-01T11:19:15.020Z,38.45
2017-07-01T11:31:17.996Z,39.05
2017-07-01T11:33:59.572Z,39.15
2017-07-01T11:50:05.111Z,39.10
2017-07-01T11:53:01.864Z,38.75
2017-07-01T11:58:37.342Z,38.35
2017-07-01T12:01:05.526Z,38.49
2017-07-01T12:03:33.173Z,38.82
2017-07-01T12:06:00.839Z,39.23
2017-07-01T12:08:28.821Z,39.22
2017-07-01T12:10:56.500Z,39.16
2017-07-01T12:13:24.175Z,38.81
2017-07-01T12:15:52.033Z,38.68
2017-07-01T12:18:19.702Z,38.49
2017-07-01T12:20:47.410Z,38.64
2017-07-01T12:23:15.104Z,38.34
2017-07-01T12:25:42.772Z,38.28
2017-07-01T12:28:10.426Z,38.21
2017-07-01T12:30:38.079Z,38.25
2017-07-01T12:33:06.375Z,38.23
2017-07-01T12:35:34.286Z,38.03
2017-07-01T12:38:01.967Z,38.06
2017-07-01T12:40:29.634Z,37.96
2017-07-01T12:42:57.905Z,38.10
2017-07-01T12:45:25.587Z,38.29
2017-07-01T12:47:53.700Z,38.28
2017-07-01T12:50:21.332Z,38.17
2017-07-01T12:52:49.009Z,38.28
2017-07-01T12:55:22.711Z,38.48
2017-07-01T12:57:55.284Z,38.63
2017-07-01T13:00:32.473Z,38.36
2017-07-01T13:03:07.905Z,38.39
2017-07-01T13:05:37.269Z,38.52
2017-07-01T13:08:11.454Z,38.70
2017-07-01T13:10:39.395Z,38.76
2017-07-01T13:13:07.018Z,38.83
2017-07-01T13:15:34.713Z,38.84
2017-07-01T13:18:02.611Z,38.75
2017-07-01T13:20:30.243Z,39.06
2017-07-01T13:22:57.877Z,39.12
2017-07-01T13:25:25.530Z,39.04
2017-07-01T13:27:53.141Z,38.71
2017-07-01T13:30:20.837Z,38.93
2017-07-01T13:32:48.450Z,38.80
2017-07-01T13:35:16.248Z,38.81
2017-07-01T13:37:43.868Z,38.81
2017-07-01T13:40:12.145Z,38.67
2017-07-01T13:42:39.816Z,38.55
2017-07-01T13:45:07.478Z,38.43
2017-07-01T13:47:35.076Z,38.15
2017-07-01T13:50:03.153Z,38.14
2017-07-01T13:52:30.774Z,38.02
2017-07-01T13:54:58.444Z,37.85
2017-07-01T13:57:26.071Z,37.86
2017-07-01T14:00:01.443Z,37.71
2017-07-01T14:02:29.189Z,37.67
2017-07-01T14:04:56.834Z,37.69
2017-07-01T14:07:24.706Z,37.78
2017-07-01T14:09:52.376Z,37.91
2017-07-01T14:12:20.187Z,37.91
2017-07-01T14:14:47.841Z,37.82
2017-07-01T14:17:15.513Z,37.79
2017-07-01T14:19:43.805Z,37.68
2017-07-01T14:22:11.730Z,37.81
2017-07-01T14:24:39.370Z,37.84
2017-07-01T14:27:07.009Z,37.91
2017-07-01T14:29:34.629Z,38.04
2017-07-01T14:32:02.247Z,38.01
2017-07-01T14:34:30.161Z,38.02
2017-07-01T14:36:59.161Z,38.13
2017-07-01T14:39:27.470Z,38.25
2017-07-01T14:41:55.086Z,38.13
2017-07-01T14:44:23.629Z,38.00
2017-07-01T14:46:52.138Z,37.80
2017-07-01T14:49:20.599Z,37.78
2017-07-01T14:51:48.226Z,37.66
2017-07-01T14:54:15.867Z,37.64
2017-07-01T14:56:44.335Z,37.56
2017-07-01T14:59:11.933Z,37.43
2017-07-01T15:01:39.611Z,37.43
2017-07-01T15:04:07.231Z,37.52
2017-07-01T15:06:34.860Z,37.35
2017-07-01T15:09:02.493Z,37.47
2017-07-01T15:11:31.066Z,37.47
2017-07-01T15:14:00.364Z,37.44
2017-07-01T15:16:44.281Z,37.56
2017-07-01T15:19:13.899Z,37.61
2017-07-01T15:21:47.630Z,37.61
2017-07-01T15:24:36.466Z,37.66
2017-07-01T15:27:14.270Z,37.71
2017-07-01T15:29:42.501Z,37.71
2017-07-01T15:32:10.145Z,37.62
2017-07-01T15:34:37.994Z,37.48
2017-07-01T15:37:06.292Z,37.57
2017-07-01T15:39:34.443Z,37.59
2017-07-01T15:42:02.091Z,37.61
2017-07-01T15:44:30.352Z,37.53
2017-07-01T15:46:57.978Z,37.51
2017-07-01T15:49:25.878Z,37.56
2017-07-01T15:51:53.881Z,37.42
2017-07-01T15:54:21.544Z,37.39
2017-07-01T15:56:49.658Z,37.43
2017-07-01T15:59:17.290Z,37.41
2017-07-01T16:01:51.876Z,37.44
2017-07-01T16:04:19.489Z,37.33
2017-07-01T16:06:47.097Z,37.44
2017-07-01T16:09:14.899Z,37.41
2017-07-01T16:11:42.509Z,37.33
2017-07-01T16:14:10.302Z,37.35
2017-07-01T16:16:37.943Z,37.26
2017-07-01T16:19:06.644Z,37.15
2017-07-01T16:21:34.343Z,37.24
2017-07-01T16:24:02.026Z,37.25
2017-07-01T16:26:29.691Z,37.15
2017-07-01T16:28:57.495Z,37.02
2017-07-01T16:31:25.158Z,37.04
2017-07-01T16:33:52.778Z,36.99
2017-07-01T16:36:20.420Z,36.83
2017-07-01T16:38:48.780Z,36.79
2017-07-01T16:41:17.103Z,36.75
2017-07-01T16:43:44.729Z,36.72
2017-07-01T16:46:12.350Z,36.76
2017-07-01T16:48:40.120Z,36.73
2017-07-01T16:51:07.738Z,36.71
2017-07-01T16:53:35.389Z,36.56
2017-07-01T16:56:03.073Z,36.44
2017-07-01T16:58:30.885Z,36.45
2017-07-01T17:00:59.286Z,36.42
2017-07-01T17:03:26.901Z,36.38
2017-07-01T17:05:55.120Z,36.19
2017-07-01T17:08:22.760Z,36.11
2017-07-01T17:10:50.359Z,36.04
2017-07-01T17:13:18.940Z,36.09
2017-07-01T17:15:46.628Z,36.02
2017-07-01T17:18:14.269Z,36.02
2017-07-01T17:20:41.897Z,35.99
2017-07-01T17:23:09.537Z,36.00
2017-07-01T17:25:37.187Z,35.91
2017-07-01T17:28:04.898Z,35.88
2017-07-01T17:30:33.434Z,35.81
2017-07-01T17:33:01.058Z,35.78
2017-07-01T17:35:28.721Z,35.79
2017-07-01T17:37:56.397Z,35.66
2017-07-01T17:40:24.001Z,35.67
2017-07-01T17:42:51.616Z,35.62
2017-07-01T17:45:20.065Z,35.55
2017-07-01T17:47:47.685Z,35.56
2017-07-01T17:50:15.308Z,35.47
2017-07-01T17:52:42.963Z,35.40
2017-07-01T17:55:11.236Z,35.32
2017-07-01T17:57:39.209Z,35.24
2017-07-01T18:00:07.167Z,35.25
2017-07-01T18:02:35.375Z,35.19
2017-07-01T18:05:02.955Z,35.13
2017-07-01T18:07:31.216Z,35.07
2017-07-01T18:09:58.803Z,35.06
2017-07-01T18:12:26.399Z,34.99
2017-07-01T18:14:54.678Z,34.96
2017-07-01T18:17:23.087Z,34.91
2017-07-01T18:19:51.136Z,34.87
2017-07-01T18:22:18.738Z,34.86
2017-07-01T18:24:47.290Z,34.76
2017-07-01T18:27:14.893Z,34.79
2017-07-01T18:29:42.621Z,34.75
2017-07-01T18:32:10.444Z,34.65
2017-07-01T18:34:38.124Z,34.65
2017-07-01T18:37:05.760Z,34.68
2017-07-01T18:39:33.428Z,34.74
2017-07-01T18:42:01.061Z,34.73
2017-07-01T18:44:28.692Z,34.69
2017-07-01T18:46:56.303Z,34.74
2017-07-01T18:49:24.646Z,34.61
2017-07-01T18:51:52.234Z,34.38
2017-07-01T18:54:19.869Z,34.19
2017-07-01T18:56:47.517Z,34.10
2017-07-01T18:59:15.160Z,33.96
2017-07-01T19:01:42.801Z,33.88
2017-07-01T19:04:10.402Z,33.75
2017-07-01T19:06:37.982Z,33.64
2017-07-01T19:09:07.926Z,33.68
2017-07-01T19:11:36.218Z,33.56
2017-07-01T19:14:03.818Z,33.47
2017-07-01T19:16:31.470Z,33.39
2017-07-01T19:18:59.063Z,33.40
2017-07-01T19:21:26.899Z,33.18
2017-07-01T19:23:54.551Z,33.20
2017-07-01T19:26:22.158Z,33.05
2017-07-01T19:28:50.461Z,32.95
2017-07-01T19:31:18.821Z,32.98
2017-07-01T19:33:46.502Z,32.88
2017-07-01T19:36:14.948Z,32.86
2017-07-01T19:38:42.755Z,32.84
2017-07-01T19:41:11.140Z,32.72
2017-07-01T19:43:38.793Z,32.68
2017-07-01T19:46:06.594Z,32.56
2017-07-01T19:48:34.174Z,32.58
2017-07-01T19:51:01.801Z,32.43
2017-07-01T19:53:29.484Z,32.42
2017-07-01T19:55:57.235Z,32.39
2017-07-01T19:58:24.890Z,32.32
2017-07-01T20:00:52.529Z,32.28
2017-07-01T20:03:20.138Z,32.12
2017-07-01T20:05:47.702Z,32.05
2017-07-01T20:08:15.834Z,32.03
2017-07-01T20:10:43.471Z,31.90
2017-07-01T20:13:11.096Z,31.89
2017-07-01T20:15:38.838Z,31.81
2017-07-01T20:18:06.421Z,31.73
2017-07-01T20:20:34.555Z,31.71
2017-07-01T20:23:04.747Z,31.67
2017-07-01T20:25:33.213Z,31.60
2017-07-01T20:28:00.894Z,31.63
2017-07-01T20:30:28.729Z,31.54
2017-07-01T20:32:56.351Z,31.53
2017-07-01T20:35:23.996Z,31.49
2017-07-01T20:37:52.505Z,31.40
2017-07-01T20:40:21.109Z,31.32
2017-07-01T20:42:49.576Z,31.23
2017-07-01T20:45:17.171Z,31.12
2017-07-01T20:47:45.713Z,31.11
2017-07-01T20:50:13.373Z,31.02
2017-07-01T20:52:41.075Z,31.02
2017-07-01T20:55:09.262Z,31.00
2017-07-01T20:57:36.826Z,30.95
2017-07-01T21:00:05.475Z,30.88
2017-07-01T21:02:33.095Z,30.83
2017-07-01T21:05:00.842Z,30.82
2017-07-01T21:07:28.433Z,30.73
2017-07-01T21:09:56.031Z,30.75
2017-07-01T21:12:24.172Z,30.61
2017-07-01T21:14:51.824Z,30.51
2017-07-01T21:17:19.430Z,30.53
2017-07-01T21:19:47.043Z,30.40
2017-07-01T21:22:15.575Z,30.38
2017-07-01T21:24:43.246Z,30.43
2017-07-01T21:27:10.907Z,30.42
2017-07-01T21:29:38.530Z,30.38
2017-07-01T21:32:06.416Z,30.18
2017-07-01T21:34:34.019Z,30.23
2017-07-01T21:37:01.565Z,30.23
2017-07-01T21:39:29.215Z,30.15
2017-07-01T21:41:57.280Z,30.09
2017-07-01T21:44:25.338Z,29.98
2017-07-01T21:46:52.993Z,29.92
2017-07-01T21:49:20.956Z,29.85
2017-07-01T21:51:49.150Z,29.97
2017-07-01T21:54:17.703Z,29.91
2017-07-01T21:56:45.371Z,29.92
2017-07-01T21:59:12.998Z,29.86
2017-07-01T22:01:40.688Z,29.73
2017-07-01T22:04:08.839Z,29.88
2017-07-01T22:06:36.497Z,29.66
2017-07-01T22:09:04.170Z,29.66
2017-07-01T22:11:31.734Z,29.52
2017-07-01T22:14:00.266Z,29.48
2017-07-01T22:16:28.284Z,29.43
2017-07-01T22:18:55.911Z,29.31
2017-07-01T22:21:23.468Z,29.13
2017-07-01T22:23:51.076Z,29.24
2017-07-01T22:26:18.670Z,29.07
2017-07-01T22:28:46.300Z,28.82
2017-07-01T22:31:14.148Z,28.65
2017-07-01T22:33:41.778Z,28.70
2017-07-01T22:36:09.448Z,28.52
2017-07-01T22:38:37.079Z,28.67
2017-07-01T22:41:04.664Z,28.49
2017-07-01T22:43:32.251Z,28.36
2017-07-01T22:46:00.150Z,28.44
2017-07-01T22:48:27.724Z,28.32
2017-07-01T22:50:55.365Z,28.22
2017-07-01T22:53:23.042Z,28.14
2017-07-01T22:55:50.650Z,28.12
2017-07-01T22:58:18.264Z,28.03
2017-07-01T23:00:45.849Z,27.84
2017-07-01T23:03:13.466Z,27.88
2017-07-01T23:05:41.122Z,27.83
2017-07-01T23:08:08.797Z,27.89
2017-07-01T23:10:36.391Z,27.92
2017-07-01T23:13:04.005Z,27.83
2017-07-01T23:15:31.605Z,27.95
2017-07-01T23:17:59.227Z,28.00
2017-07-01T23:20:27.560Z,27.94
2017-07-01T23:22:55.162Z,27.95
2017-07-01T23:25:22.745Z,27.85
2017-07-01T23:27:50.320Z,27.59
2017-07-01T23:30:18.775Z,27.45
2017-07-01T23:32:46.352Z,27.45
2017-07-01T23:35:13.978Z,27.54
2017-07-01T23:37:41.647Z,27.41
2017-07-01T23:40:10.347Z,27.38
2017-07-01T23:42:37.965Z,27.23
2017-07-01T23:45:06.488Z,26.99
2017-07-01T23:47:34.275Z,26.97
2017-07-01T23:50:02.039Z,26.91
2017-07-01T23:52:29.706Z,26.99
2017-07-01T23:54:57.484Z,26.71
2017-07-01T23:57:25.082Z,26.79
2017-07-01T23:59:52.691Z,26.74
